Time;durP1;ratioP1;P1;durP2;ratioP2;P2;SDS_P1;SDS_P2;PMS_P1;PMS_P2;Temp;Humidity;BMP_temperature;BMP_pressure;BME280_temperature;BME280_humidity;BME280_pressure;Samples;Min_cycle;Max_cycle;Signal;HPM_P1;HPM_P2
2021/06/28 00:01:33;;;;;;;35.60;9.65;;;;;;;;;;5016117;28;20108;-67
2021/06/28 00:03:59;;;;;;;34.33;9.15;;;;;;;;;;5033747;28;20021;-68
2021/06/28 00:06:25;;;;;;;11.30;6.72;;;;;;;;;;5016310;28;20018;-67
2021/06/28 00:08:52;;;;;;;10.02;6.63;;;;;;;;;;5033940;28;20025;-66
2021/06/28 00:11:19;;;;;;;8.60;6.40;;;;;;;;;;5034742;28;20025;-67
2021/06/28 00:13:45;;;;;;;6.97;6.28;;;;;;;;;;5053576;28;20013;-67
2021/06/28 00:16:13;;;;;;;6.95;6.10;;;;;;;;;;5053312;28;20021;-68
2021/06/28 00:18:39;;;;;;;8.05;6.40;;;;;;;;;;5053294;28;20020;-68
2021/06/28 00:21:06;;;;;;;7.68;6.60;;;;;;;;;;5053159;28;20032;-67
2021/06/28 00:23:32;;;;;;;7.53;5.95;;;;;;;;;;5053291;28;20116;-67
2021/06/28 00:25:58;;;;;;;6.72;6.03;;;;;;;;;;5053211;28;20040;-68
2021/06/28 00:28:24;;;;;;;8.10;6.35;;;;;;;;;;5053054;28;20033;-67
2021/06/28 00:30:50;;;;;;;8.90;6.53;;;;;;;;;;5053302;28;20143;-67
2021/06/28 00:33:18;;;;;;;7.30;6.60;;;;;;;;;;5053230;28;20025;-67
2021/06/28 00:35:45;;;;;;;7.55;6.82;;;;;;;;;;5053217;28;20357;-67
2021/06/28 00:38:14;;;;;;;8.45;7.10;;;;;;;;;;5035041;28;20032;-67
2021/06/28 00:40:40;;;;;;;8.23;7.38;;;;;;;;;;5052924;28;20103;-67
2021/06/28 00:43:07;;;;;;;7.55;6.70;;;;;;;;;;5053036;28;20554;-67
2021/06/28 00:45:37;;;;;;;7.55;6.95;;;;;;;;;;5052945;28;20082;-68
2021/06/28 00:48:05;;;;;;;9.02;7.30;;;;;;;;;;5052759;28;20029;-67
2021/06/28 00:50:32;;;;;;;9.05;7.05;;;;;;;;;;5052776;28;20029;-67
2021/06/28 00:52:59;;;;;;;7.70;6.95;;;;;;;;;;5034883;28;20021;-67
2021/06/28 00:55:25;;;;;;;7.95;7.05;;;;;;;;;;5052728;28;20037;-67
2021/06/28 00:57:51;;;;;;;8.27;7.38;;;;;;;;;;5052309;28;20020;-67
2021/06/28 01:00:18;;;;;;;8.07;7.22;;;;;;;;;;5052486;28;20052;-67
2021/06/28 01:02:44;;;;;;;9.55;8.05;;;;;;;;;;5052479;28;20056;-68
2021/06/28 01:05:12;;;;;;;9.60;7.05;;;;;;;;;;5035724;28;20048;-67
2021/06/28 01:07:38;;;;;;;7.82;7.03;;;;;;;;;;5014285;28;20032;-67
2021/06/28 01:10:06;;;;;;;7.85;7.15;;;;;;;;;;5014601;28;20420;-68
2021/06/28 01:12:32;;;;;;;9.90;7.60;;;;;;;;;;5035370;28;20033;-67
2021/06/28 01:14:58;;;;;;;7.25;6.65;;;;;;;;;;5032597;28;20549;-67
2021/06/28 01:17:24;;;;;;;7.25;6.53;;;;;;;;;;5032072;28;20160;-67
2021/06/28 01:19:54;;;;;;;7.53;6.82;;;;;;;;;;5031973;28;20109;-67
2021/06/28 01:22:24;;;;;;;7.25;6.55;;;;;;;;;;5031416;28;20040;-67
2021/06/28 01:24:50;;;;;;;7.93;6.18;;;;;;;;;;5032336;28;20030;-67
2021/06/28 01:27:16;;;;;;;8.38;7.05;;;;;;;;;;5031896;28;20033;-67
2021/06/28 01:29:42;;;;;;;7.05;6.35;;;;;;;;;;5014696;28;20392;-67
2021/06/28 01:32:08;;;;;;;7.13;6.43;;;;;;;;;;5032159;28;20024;-67
2021/06/28 01:34:34;;;;;;;7.20;6.55;;;;;;;;;;5031978;28;20017;-67
2021/06/28 01:37:11;;;;;;;9.95;6.78;;;;;;;;;;5013931;28;20403;-66
2021/06/28 01:39:38;;;;;;;8.18;7.07;;;;;;;;;;5031835;28;20108;-67
2021/06/28 01:42:04;;;;;;;8.63;6.85;;;;;;;;;;5032214;28;20034;-67
2021/06/28 01:44:31;;;;;;;7.30;6.50;;;;;;;;;;5032216;28;20037;-67
2021/06/28 01:46:57;;;;;;;7.93;7.10;;;;;;;;;;5031586;28;20095;-66
2021/06/28 01:49:23;;;;;;;7.07;6.38;;;;;;;;;;5014215;28;20021;-67
2021/06/28 01:51:49;;;;;;;7.72;6.85;;;;;;;;;;5031800;28;20087;-66
2021/06/28 01:54:17;;;;;;;7.63;6.72;;;;;;;;;;5032006;28;20426;-67
2021/06/28 01:56:43;;;;;;;8.13;6.25;;;;;;;;;;5031938;28;20143;-67
2021/06/28 01:59:09;;;;;;;7.72;7.03;;;;;;;;;;5032326;28;20029;-66
2021/06/28 02:01:35;;;;;;;8.48;7.10;;;;;;;;;;5031859;28;20033;-67
2021/06/28 02:04:01;;;;;;;12.00;7.15;;;;;;;;;;5024795;28;20026;-68
2021/06/28 02:06:27;;;;;;;12.20;6.97;;;;;;;;;;4994189;28;20368;-67
2021/06/28 02:08:53;;;;;;;9.90;7.40;;;;;;;;;;5012155;28;20018;-67
2021/06/28 02:11:19;;;;;;;9.60;7.15;;;;;;;;;;5025613;28;20442;-68
2021/06/28 02:13:45;;;;;;;7.38;6.68;;;;;;;;;;5033357;28;20029;-68
2021/06/28 02:16:11;;;;;;;6.50;5.90;;;;;;;;;;5013821;28;20053;-68
2021/06/28 02:18:37;;;;;;;7.95;7.15;;;;;;;;;;5031213;28;20061;-68
2021/06/28 02:21:03;;;;;;;8.80;7.90;;;;;;;;;;5031720;28;20152;-68
2021/06/28 02:23:37;;;;;;;9.57;7.95;;;;;;;;;;5031080;28;20025;-67
2021/06/28 02:26:05;;;;;;;9.00;8.20;;;;;;;;;;5031841;28;20029;-68
2021/06/28 02:28:32;;;;;;;9.05;7.57;;;;;;;;;;5014167;28;20507;-68
2021/06/28 02:30:59;;;;;;;7.93;7.22;;;;;;;;;;5031572;28;20084;-68
2021/06/28 02:33:25;;;;;;;7.97;7.25;;;;;;;;;;5013430;28;20025;-68
2021/06/28 02:35:52;;;;;;;12.00;7.20;;;;;;;;;;5031563;28;20030;-68
2021/06/28 02:38:18;;;;;;;11.20;8.30;;;;;;;;;;5031595;28;20515;-67
2021/06/28 02:40:44;;;;;;;8.55;7.65;;;;;;;;;;5013393;28;20025;-67
2021/06/28 02:43:10;;;;;;;11.45;7.35;;;;;;;;;;5031198;28;20487;-68
2021/06/28 02:45:36;;;;;;;7.63;6.93;;;;;;;;;;5030990;28;20171;-68
2021/06/28 02:48:03;;;;;;;10.13;7.57;;;;;;;;;;5030745;28;20108;-66
2021/06/28 02:50:29;;;;;;;8.63;7.68;;;;;;;;;;5031140;28;20033;-68
2021/06/28 02:52:55;;;;;;;8.73;7.50;;;;;;;;;;5030827;28;20026;-67
2021/06/28 02:55:21;;;;;;;10.20;7.85;;;;;;;;;;5030961;28;20026;-67
2021/06/28 02:57:47;;;;;;;19.08;8.20;;;;;;;;;;5030701;28;20034;-67
2021/06/28 03:00:14;;;;;;;11.35;7.75;;;;;;;;;;5012980;28;20030;-68
2021/06/28 03:02:40;;;;;;;9.75;7.20;;;;;;;;;;5030982;28;20017;-67
2021/06/28 03:05:07;;;;;;;11.07;8.65;;;;;;;;;;5015004;28;20053;-67
2021/06/28 03:07:33;;;;;;;15.38;8.68;;;;;;;;;;5010976;28;20101;-67
2021/06/28 03:09:59;;;;;;;13.50;8.77;;;;;;;;;;5012123;28;20026;-67
2021/06/28 03:12:25;;;;;;;10.88;7.88;;;;;;;;;;5041337;28;20151;-68
2021/06/28 03:14:51;;;;;;;154.50;116.30;;;;;;;;;;5035735;28;20028;-68
2021/06/28 03:17:17;;;;;;;20.92;11.20;;;;;;;;;;5012628;28;20026;-68
2021/06/28 03:19:43;;;;;;;65.43;41.72;;;;;;;;;;5013401;28;20504;-68
2021/06/28 03:22:09;;;;;;;17.50;13.25;;;;;;;;;;5030240;28;20604;-68
2021/06/28 03:24:35;;;;;;;9.10;8.13;;;;;;;;;;5031242;28;20037;-68
2021/06/28 03:27:01;;;;;;;13.18;8.10;;;;;;;;;;5031322;28;20080;-68
2021/06/28 03:29:27;;;;;;;62.85;48.35;;;;;;;;;;5031055;28;20061;-68
2021/06/28 03:31:53;;;;;;;62.83;37.47;;;;;;;;;;5030617;28;20041;-68
2021/06/28 03:34:21;;;;;;;13.20;8.88;;;;;;;;;;5012841;28;20026;-67
2021/06/28 03:36:47;;;;;;;9.55;7.20;;;;;;;;;;5033950;28;20029;-68
2021/06/28 03:39:13;;;;;;;8.88;7.30;;;;;;;;;;5034067;28;20036;-67
2021/06/28 03:41:39;;;;;;;9.85;7.70;;;;;;;;;;5016222;28;20185;-67
2021/06/28 03:44:05;;;;;;;9.35;7.25;;;;;;;;;;5033976;28;20033;-67
2021/06/28 03:46:32;;;;;;;8.73;6.53;;;;;;;;;;5033679;28;20432;-67
2021/06/28 03:48:58;;;;;;;15.55;7.70;;;;;;;;;;5033939;28;20053;-67
2021/06/28 03:51:24;;;;;;;9.20;8.20;;;;;;;;;;5033883;28;20029;-67
2021/06/28 03:53:51;;;;;;;9.95;7.72;;;;;;;;;;5033906;28;20030;-67
2021/06/28 03:56:17;;;;;;;9.93;7.90;;;;;;;;;;5033920;28;20026;-68
2021/06/28 03:58:44;;;;;;;10.48;7.32;;;;;;;;;;5016016;28;20112;-67
2021/06/28 04:01:10;;;;;;;8.68;7.75;;;;;;;;;;5032187;28;20033;-67
2021/06/28 04:03:37;;;;;;;13.77;8.15;;;;;;;;;;5031179;28;20037;-68
2021/06/28 04:06:05;;;;;;;11.10;7.47;;;;;;;;;;5031584;28;20030;-68
2021/06/28 04:08:32;;;;;;;9.35;8.13;;;;;;;;;;5031754;28;20100;-68
2021/06/28 04:10:58;;;;;;;13.57;7.95;;;;;;;;;;5014343;28;20080;-67
2021/06/28 04:13:24;;;;;;;9.02;6.68;;;;;;;;;;5051746;28;20039;-67
2021/06/28 04:15:50;;;;;;;9.38;7.05;;;;;;;;;;5053371;28;20025;-68
2021/06/28 04:18:16;;;;;;;10.88;7.28;;;;;;;;;;5039484;28;20083;-67
2021/06/28 04:20:42;;;;;;;7.80;6.93;;;;;;;;;;5015496;28;20037;-67
2021/06/28 04:23:08;;;;;;;9.23;7.43;;;;;;;;;;5015491;28;20112;-68
2021/06/28 04:25:35;;;;;;;7.93;7.05;;;;;;;;;;5033291;28;20037;-68
2021/06/28 04:28:01;;;;;;;11.10;7.07;;;;;;;;;;5032930;28;20479;-69
2021/06/28 04:30:27;;;;;;;10.20;7.13;;;;;;;;;;5015480;28;20514;-69
2021/06/28 04:32:53;;;;;;;12.18;7.13;;;;;;;;;;5033268;28;20565;-69
2021/06/28 04:35:21;;;;;;;9.05;6.55;;;;;;;;;;5033348;28;20498;-69
2021/06/28 04:37:47;;;;;;;10.55;6.40;;;;;;;;;;5015095;28;20032;-69
2021/06/28 04:40:15;;;;;;;10.35;6.95;;;;;;;;;;5032790;28;20403;-69
2021/06/28 04:42:41;;;;;;;9.57;7.70;;;;;;;;;;5032895;28;20033;-69
2021/06/28 04:45:09;;;;;;;7.97;7.18;;;;;;;;;;5032759;28;20372;-68
2021/06/28 04:47:35;;;;;;;13.70;7.00;;;;;;;;;;5032601;28;20492;-68
2021/06/28 04:50:03;;;;;;;7.95;7.15;;;;;;;;;;5032556;28;20395;-69
2021/06/28 04:52:32;;;;;;;7.97;7.10;;;;;;;;;;5032746;28;20025;-67
2021/06/28 04:54:58;;;;;;;11.88;7.32;;;;;;;;;;5032666;28;20022;-67
2021/06/28 04:57:24;;;;;;;9.93;7.45;;;;;;;;;;5028966;28;20057;-65
2021/06/28 04:59:50;;;;;;;9.57;7.70;;;;;;;;;;5019217;28;20030;-67
2021/06/28 05:02:16;;;;;;;8.10;7.30;;;;;;;;;;5030615;28;20083;-68
2021/06/28 05:04:42;;;;;;;16.23;8.60;;;;;;;;;;5032678;28;20036;-68
2021/06/28 05:07:08;;;;;;;13.30;8.05;;;;;;;;;;5026016;28;20064;-68
2021/06/28 05:09:34;;;;;;;10.13;7.13;;;;;;;;;;5028843;28;20083;-67
2021/06/28 05:12:02;;;;;;;8.77;7.20;;;;;;;;;;5013291;28;20052;-68
2021/06/28 05:14:28;;;;;;;13.02;7.93;;;;;;;;;;5030182;28;20018;-67
2021/06/28 05:16:54;;;;;;;11.50;7.55;;;;;;;;;;5030413;28;20083;-66
2021/06/28 05:19:20;;;;;;;9.20;7.05;;;;;;;;;;5030024;28;20088;-67
2021/06/28 05:21:46;;;;;;;8.07;7.20;;;;;;;;;;5044367;23;20053;-68
2021/06/28 05:24:12;;;;;;;10.80;6.63;;;;;;;;;;5032122;28;20032;-68
2021/06/28 05:26:38;;;;;;;9.57;6.65;;;;;;;;;;5030101;28;20506;-68
2021/06/28 05:29:04;;;;;;;10.38;6.72;;;;;;;;;;5031150;28;20033;-68
2021/06/28 05:31:30;;;;;;;11.73;7.07;;;;;;;;;;5031843;28;20029;-68
2021/06/28 05:33:56;;;;;;;11.43;6.65;;;;;;;;;;5031955;28;20025;-67
2021/06/28 05:36:22;;;;;;;9.57;7.60;;;;;;;;;;5031861;28;20369;-67
2021/06/28 05:38:48;;;;;;;9.00;7.13;;;;;;;;;;4997961;28;20026;-67
2021/06/28 05:41:16;;;;;;;15.52;7.70;;;;;;;;;;5031492;28;20030;-68
2021/06/28 05:43:42;;;;;;;9.43;7.82;;;;;;;;;;5031233;28;20029;-67
2021/06/28 05:46:08;;;;;;;9.50;7.55;;;;;;;;;;5031496;28;20032;-68
2021/06/28 05:48:34;;;;;;;12.05;7.82;;;;;;;;;;5031511;28;20391;-69
2021/06/28 05:51:00;;;;;;;10.52;7.53;;;;;;;;;;5013693;28;20025;-68
2021/06/28 05:53:26;;;;;;;10.13;7.50;;;;;;;;;;5031524;28;20037;-68
2021/06/28 05:55:52;;;;;;;11.48;7.10;;;;;;;;;;5031542;28;20025;-68
2021/06/28 05:58:22;;;;;;;8.93;7.00;;;;;;;;;;5012590;28;20067;-67
2021/06/28 06:00:48;;;;;;;11.85;7.78;;;;;;;;;;5031518;28;20036;-67
2021/06/28 06:03:14;;;;;;;12.50;7.35;;;;;;;;;;5031598;28;20021;-67
2021/06/28 06:05:40;;;;;;;10.18;7.25;;;;;;;;;;5013821;28;20029;-67
2021/06/28 06:08:06;;;;;;;16.05;7.82;;;;;;;;;;5031205;28;20033;-67
2021/06/28 06:10:32;;;;;;;14.63;10.30;;;;;;;;;;5031492;28;20029;-68
2021/06/28 06:12:58;;;;;;;10.63;7.45;;;;;;;;;;5014006;28;20037;-69
2021/06/28 06:15:24;;;;;;;19.25;12.82;;;;;;;;;;5031337;28;20037;-71
2021/06/28 06:17:51;;;;;;;16.58;11.05;;;;;;;;;;5013370;28;20136;-70
2021/06/28 06:20:16;;;;;;;9.77;5.50;;;30.10;41.10;;;;;;5031171;28;20103;-69
2021/06/28 06:22:42;;;;;;;5.13;4.70;;;31.10;38.30;;;;;;5013774;28;20033;-67
2021/06/28 06:25:09;;;;;;;12.65;7.00;;;31.90;34.20;;;;;;5013964;28;20506;-68
2021/06/28 06:27:35;;;;;;;5.25;3.90;;;31.20;35.70;;;;;;5013423;28;20035;-68
2021/06/28 06:30:01;;;;;;;4.80;4.30;;;30.90;36.60;;;;;;5031454;28;20025;-69
2021/06/28 06:32:26;;;;;;;8.60;5.55;;;30.50;36.00;;;;;;5031414;28;20076;-71
2021/06/28 06:34:52;;;;;;;5.18;4.53;;;30.40;36.90;;;;;;5031306;28;20033;-68
2021/06/28 06:37:18;;;;;;;6.25;4.25;;;30.70;36.20;;;;;;5013424;28;20028;-69
2021/06/28 06:39:43;;;;;;;6.10;4.80;;;31.40;36.10;;;;;;5031304;28;20017;-69
2021/06/28 06:42:09;;;;;;;5.05;4.35;;;30.90;34.50;;;;;;5030873;28;20032;-70
2021/06/28 06:44:35;;;;;;;12.40;8.40;;;31.10;35.30;;;;;;5013481;28;20140;-70
2021/06/28 06:47:01;;;;;;;5.53;4.30;;;32.10;34.80;;;;;;5031005;28;20071;-70
2021/06/28 06:49:27;;;;;;;12.07;4.53;;;33.30;31.60;;;;;;5031075;28;20023;-69
2021/06/28 06:51:53;;;;;;;6.93;5.75;;;33.50;31.20;;;;;;5031380;28;20022;-70
2021/06/28 06:54:19;;;;;;;5.50;3.90;;;34.00;31.70;;;;;;5031314;28;20438;-70
2021/06/28 06:56:45;;;;;;;5.50;5.00;;;33.90;30.20;;;;;;5030998;28;20104;-71
2021/06/28 06:59:11;;;;;;;5.53;4.28;;;;;;;;;;5013415;28;20118;-71
2021/06/28 07:01:39;;;;;;;14.38;4.85;;;;;;;;;;5031091;28;20025;-71
2021/06/28 07:04:05;;;;;;;8.38;6.32;;;;;;;;;;5031218;28;20167;-71
2021/06/28 07:06:31;;;;;;;7.70;4.90;;;;;;;;;;5030678;28;20368;-71
2021/06/28 07:08:57;;;;;;;10.63;6.90;;;;;;;;;;5031871;28;20025;-68
2021/06/28 07:11:25;;;;;;;98.25;85.03;;;;;;;;;;5016806;28;20431;-69
2021/06/28 07:13:51;;;;;;;280.38;208.25;;;;;;;;;;5034568;28;20107;-66
2021/06/28 07:16:17;;;;;;;27.30;19.73;;;;;;;;;;5033885;28;20438;-68
2021/06/28 07:18:44;;;;;;;30.05;19.88;;;27.60;43.80;;;;;;5034382;28;20391;-68
2021/06/28 07:21:09;;;;;;;10.98;6.40;;;27.60;43.90;;;;;;5034496;28;20029;-68
2021/06/28 07:23:35;;;;;;;46.28;29.55;;;27.70;44.30;;;;;;5034827;28;20565;-66
2021/06/28 07:26:01;;;;;;;11.77;6.85;;;28.70;43.20;;;;;;5016649;28;20438;-67
2021/06/28 07:28:28;;;;;;;70.95;47.50;;;28.40;42.70;;;;;;5034470;28;20511;-67
2021/06/28 07:30:57;;;;;;;11.88;8.85;;;28.40;43.50;;;;;;5034517;28;20050;-67
2021/06/28 07:33:24;;;;;;;28.13;15.32;;;28.40;44.00;;;;;;5016708;28;20017;-69
2021/06/28 07:35:50;;;;;;;33.33;23.40;;;28.20;43.70;;;;;;5034327;28;20067;-67
2021/06/28 07:38:16;;;;;;;11.05;8.70;;;28.20;44.10;;;;;;5034195;28;20033;-69
2021/06/28 07:40:41;;;;;;;6.43;5.70;;;28.60;43.00;;;;;;5034172;28;20038;-70
2021/06/28 07:43:07;;;;;;;11.88;6.25;;;28.50;43.30;;;;;;5016508;28;20030;-72
2021/06/28 07:45:32;;;;;;;9.43;6.35;;;27.90;43.90;;;;;;5016712;28;20100;-71
2021/06/28 07:47:58;;;;;;;9.05;5.80;;;27.30;45.80;;;;;;5033643;28;20039;-72
2021/06/28 07:50:24;;;;;;;12.18;6.28;;;26.90;46.50;;;;;;5034042;28;20014;-72
2021/06/28 07:52:50;;;;;;;6.82;6.20;;;26.40;47.70;;;;;;5034107;28;20392;-72
2021/06/28 07:55:16;;;;;;;18.38;10.60;;;26.00;49.00;;;;;;5016446;28;20021;-70
2021/06/28 07:57:42;;;;;;;11.40;6.10;;;26.00;49.80;;;;;;5033612;28;20037;-69
2021/06/28 08:00:10;;;;;;;11.57;6.90;;;26.90;46.30;;;;;;5016336;28;20026;-69
2021/06/28 08:02:36;;;;;;;6.13;5.63;;;27.50;44.90;;;;;;5016721;28;20036;-68
2021/06/28 08:05:03;;;;;;;7.68;6.20;;;27.20;45.50;;;;;;5034111;28;20029;-67
2021/06/28 08:07:29;;;;;;;13.32;7.20;;;26.80;46.40;;;;;;5033646;28;20021;-68
2021/06/28 08:09:54;;;;;;;9.32;5.72;;;26.80;46.70;;;;;;5015900;28;20024;-72
2021/06/28 08:12:22;;;;;;;6.90;5.15;;;27.10;45.30;;;;;;5033908;28;20047;-69
2021/06/28 08:14:48;;;;;;;49.28;33.60;;;28.20;42.80;;;;;;5034008;28;20026;-69
2021/06/28 08:17:13;;;;;;;9.65;6.45;;;29.70;40.70;;;;;;5033460;28;20028;-71
2021/06/28 08:19:42;;;;;;;15.27;9.50;;;31.40;36.80;;;;;;5033754;28;20080;-70
2021/06/28 08:22:08;;;;;;;6.72;5.38;;;30.90;37.60;;;;;;5032746;28;20371;-71
2021/06/28 08:24:33;;;;;;;9.05;6.22;;;30.90;37.40;;;;;;5033499;28;20029;-71
2021/06/28 08:26:59;;;;;;;36.75;25.55;;;31.40;37.00;;;;;;5033482;28;20029;-69
2021/06/28 08:29:25;;;;;;;76.00;49.10;;;32.60;35.40;;;;;;5033482;28;20021;-69
2021/06/28 08:31:50;;;;;;;21.42;14.13;;;33.30;34.20;;;;;;5033503;28;20439;-70
2021/06/28 08:34:16;;;;;;;54.17;36.05;;;33.70;33.60;;;;;;5033918;28;20045;-71
2021/06/28 08:36:45;;;;;;;12.95;8.98;;;34.70;32.80;;;;;;5033200;28;20052;-70
2021/06/28 08:39:11;;;;;;;6.53;5.05;;;35.50;32.00;;;;;;5033565;28;20081;-69
2021/06/28 08:41:42;;;;;;;6.93;6.22;;;35.90;30.00;;;;;;5033108;28;20022;-69
2021/06/28 08:44:11;;;;;;;10.38;6.50;;;36.50;28.80;;;;;;5033323;28;20017;-70
2021/06/28 08:46:37;;;;;;;9.13;6.45;;;36.20;29.50;;;;;;5032740;28;20112;-68
2021/06/28 08:49:03;;;;;;;10.70;5.53;;;36.00;30.30;;;;;;5033191;28;20104;-71
2021/06/28 08:51:30;;;;;;;8.75;6.25;;;35.70;29.90;;;;;;5015626;28;20559;-68
2021/06/28 08:53:57;;;;;;;44.35;30.10;;;36.00;30.00;;;;;;5024536;28;20043;-69
2021/06/28 08:56:22;;;;;;;13.85;11.05;;;36.50;30.00;;;;;;5020106;28;20021;-71
2021/06/28 08:58:48;;;;;;;17.83;13.80;;;37.40;29.50;;;;;;5021987;28;20022;-72
2021/06/28 09:01:14;;;;;;;13.15;8.73;;;37.90;27.70;;;;;;5027325;28;20079;-69
2021/06/28 09:03:41;;;;;;;47.22;34.17;;;37.80;27.60;;;;;;5015182;28;20029;-69
2021/06/28 09:06:10;;;;;;;14.73;12.32;;;37.40;27.90;;;;;;5030696;28;20479;-67
2021/06/28 09:08:36;;;;;;;9.23;6.68;;;37.60;27.00;;;;;;5033051;28;20034;-70
2021/06/28 09:11:03;;;;;;;6.93;4.82;;;36.30;28.30;;;;;;5032525;28;20100;-69
2021/06/28 09:13:43;;;;;;;8.45;5.07;;;35.70;30.00;;;;;;5032491;28;20026;-70
2021/06/28 09:16:21;;;;;;;23.80;18.50;;;34.50;31.80;;;;;;5032473;28;20021;-69
2021/06/28 09:18:55;;;;;;;5.70;4.70;;;35.10;30.20;;;;;;4998437;28;20036;-69
2021/06/28 09:21:40;;;;;;;22.77;13.13;;;35.90;28.60;;;;;;5032351;28;20577;-69
2021/06/28 09:24:25;;;;;;;5.40;4.20;;;35.80;29.10;;;;;;5014933;28;20029;-69
2021/06/28 09:26:57;;;;;;;4.78;4.28;;;35.30;29.00;;;;;;5032405;28;20025;-71
2021/06/28 09:29:36;;;;;;;7.45;4.57;;;35.80;28.40;;;;;;5032413;28;20025;-71
2021/06/28 09:32:13;;;;;;;35.42;27.00;;;35.90;28.30;;;;;;5032307;28;20025;-70
2021/06/28 09:34:40;;;;;;;5.78;4.60;;;35.60;29.30;;;;;;5032778;28;20076;-71
2021/06/28 09:37:23;;;;;;;70.53;51.80;;;35.30;28.40;;;;;;5031396;28;20095;-69
2021/06/28 09:39:55;;;;;;;4.20;3.58;;;35.20;31.20;;;;;;5030648;28;20017;-69
2021/06/28 09:42:22;;;;;;;35.40;25.88;;;35.40;28.30;;;;;;5032400;28;20514;-69
2021/06/28 09:45:05;;;;;;;5.05;4.40;;;35.60;29.40;;;;;;5013110;28;20029;-69
2021/06/28 09:47:35;;;;;;;4.60;4.03;;;35.40;28.40;;;;;;5031953;28;20488;-69
2021/06/28 09:50:08;;;;;;;5.05;4.55;;;34.90;29.30;;;;;;5031937;28;20060;-71
2021/06/28 09:52:43;;;;;;;4.47;3.97;;;34.60;29.60;;;;;;5014472;28;20025;-70
2021/06/28 09:55:25;;;;;;;4.30;3.90;;;34.10;30.60;;;;;;5032035;28;20438;-70
2021/06/28 09:58:08;;;;;;;4.80;4.30;;;;;;;;;;5031958;28;20026;-70
2021/06/28 10:00:37;;;;;;;6.32;4.55;;;33.00;30.90;;;;;;5031895;28;20580;-70
2021/06/28 10:03:04;;;;;;;9.70;5.40;;;32.80;32.00;;;;;;5031934;28;20101;-70
2021/06/28 10:05:35;;;;;;;7.72;4.18;;;32.90;32.60;;;;;;5014499;28;20075;-71
2021/06/28 10:08:01;;;;;;;4.72;4.28;;;32.40;32.20;;;;;;5033461;28;20026;-70
2021/06/28 10:10:28;;;;;;;11.77;8.07;;;32.30;33.60;;;;;;5034163;28;20032;-70
2021/06/28 10:12:57;;;;;;;4.72;4.32;;;32.80;34.50;;;;;;5000591;28;20017;-70
2021/06/28 10:15:26;;;;;;;5.72;3.88;;;32.70;33.30;;;;;;5032820;28;20483;-70
2021/06/28 10:17:52;;;;;;;6.68;5.10;;;32.40;32.50;;;;;;5031938;28;20574;-70
2021/06/28 10:20:30;;;;;;;6.63;3.90;;;32.00;34.20;;;;;;5032191;28;20080;-70
2021/06/28 10:22:56;;;;;;;12.63;9.48;;;32.40;32.90;;;;;;5032036;28;20028;-70
2021/06/28 10:25:25;;;;;;;11.50;8.68;;;32.30;34.40;;;;;;5014154;28;20376;-70
2021/06/28 10:27:51;;;;;;;4.95;3.83;;;32.50;34.40;;;;;;5031387;28;20483;-70
2021/06/28 10:30:20;;;;;;;4.43;4.03;;;32.70;32.30;;;;;;5031461;28;20029;-69
2021/06/28 10:32:49;;;;;;;4.85;4.28;;;32.40;31.30;;;;;;5031599;28;20025;-68
2021/06/28 10:35:27;;;;;;;4.05;3.75;;;31.70;32.70;;;;;;5031744;28;20153;-69
2021/06/28 10:37:53;;;;;;;5.30;4.15;;;31.40;33.00;;;;;;5013485;28;20074;-69
2021/06/28 10:40:22;;;;;;;4.43;3.92;;;31.00;34.40;;;;;;5013703;28;20536;-69
2021/06/28 10:42:54;;;;;;;4.10;3.80;;;31.20;34.80;;;;;;5013987;28;20566;-69
2021/06/28 10:45:40;;;;;;;4.47;3.90;;;31.80;33.40;;;;;;5035006;28;20025;-70
2021/06/28 10:48:18;;;;;;;3.88;3.53;;;32.60;33.30;;;;;;5035340;28;20029;-70
2021/06/28 10:50:47;;;;;;;5.47;3.75;;;32.40;32.10;;;;;;5017817;28;20022;-69
2021/06/28 10:53:13;;;;;;;4.47;3.72;;;32.20;31.70;;;;;;5035321;28;20037;-69
2021/06/28 10:55:39;;;;;;;4.35;3.58;;;31.60;32.10;;;;;;5034313;28;20078;-68
2021/06/28 10:58:23;;;;;;;6.15;4.13;;;30.70;33.70;;;;;;5035395;28;20029;-69
2021/06/28 11:00:50;;;;;;;5.07;3.35;;;;;;;;;;5035234;28;20415;-69
2021/06/28 11:03:34;;;;;;;3.63;3.33;;;;;;;;;;5035476;28;20499;-70
2021/06/28 11:06:15;;;;;;;8.50;4.00;;;;;;;;;;5035358;28;20025;-68
2021/06/28 11:08:59;;;;;;;4.15;3.58;;;;;;;;;;5016450;28;20091;-69
2021/06/28 11:11:44;;;;;;;7.80;4.32;;;;;;;;;;5034117;28;20419;-69
2021/06/28 11:14:19;;;;;;;5.30;3.72;;;;;;;;;;5017499;28;20022;-69
2021/06/28 11:16:55;;;;;;;5.22;3.70;;;;;;;;;;5035037;28;20017;-70
2021/06/28 11:19:40;;;;;;;5.32;3.88;;;;;;;;;;5035251;28;20045;-70
2021/06/28 11:22:39;;;;;;;5.13;3.50;;;;;;;;;;5040958;23;20096;-65
2021/06/28 11:25:11;;;;;;;4.65;3.70;;;;;;;;;;4965467;28;20038;-65
2021/06/28 11:27:41;;;;;;;4.97;4.22;;;;;;;;;;5014685;28;20395;-66
2021/06/28 11:30:13;;;;;;;5.70;3.50;;;;;;;;;;5014992;28;20033;-65
2021/06/28 11:32:55;;;;;;;4.25;3.65;;;;;;;;;;5014890;28;20026;-66
2021/06/28 11:35:34;;;;;;;5.68;4.38;;;;;;;;;;5014603;28;20026;-65
2021/06/28 11:38:20;;;;;;;6.88;3.88;;;;;;;;;;5014369;28;20025;-67
2021/06/28 11:41:01;;;;;;;5.63;3.88;;;;;;;;;;5004435;28;20038;-67
2021/06/28 11:43:45;;;;;;;5.10;4.60;;;;;;;;;;4996926;28;20037;-65
2021/06/28 11:46:13;;;;;;;3.97;3.65;;;;;;;;;;5014280;28;20037;-67
2021/06/28 11:48:49;;;;;;;4.50;4.10;;;;;;;;;;5014246;28;20113;-66
2021/06/28 11:51:17;;;;;;;6.10;4.43;;;;;;;;;;5014441;28;20014;-66
2021/06/28 11:53:43;;;;;;;9.05;3.67;;;;;;;;;;5014420;28;20030;-65
2021/06/28 11:56:19;;;;;;;7.45;3.95;;;;;;;;;;5012665;28;20026;-65
2021/06/28 11:58:52;;;;;;;5.88;4.28;;;;;;;;;;5014218;28;20033;-66
2021/06/28 12:01:20;;;;;;;3.53;3.33;;;;;;;;;;5014272;28;20065;-65
2021/06/28 12:03:46;;;;;;;4.13;3.83;;;;;;;;;;5013889;28;20497;-65
2021/06/28 12:06:12;;;;;;;6.53;4.07;;;;;;;;;;5013887;28;20057;-65
2021/06/28 12:08:39;;;;;;;4.60;4.20;;;;;;;;;;5014546;28;20472;-65
2021/06/28 12:11:04;;;;;;;4.10;3.80;;;;;;;;;;5014232;28;20084;-65
2021/06/28 12:13:31;;;;;;;5.07;4.60;;;;;;;;;;5014182;28;20033;-66
2021/06/28 12:15:57;;;;;;;7.32;4.70;;;;;;;;;;5014066;28;20061;-65
2021/06/28 12:18:24;;;;;;;5.53;5.03;;;;;;;;;;4996132;28;20026;-66
2021/06/28 12:21:01;;;;;;;4.80;4.32;;;;;;;;;;5014129;28;20392;-65
2021/06/28 12:23:27;;;;;;;6.38;4.32;;;;;;;;;;4996575;28;20034;-66
2021/06/28 12:25:53;;;;;;;5.00;4.60;;;;;;;;;;5013805;28;20076;-66
2021/06/28 12:28:28;;;;;;;4.43;3.92;;;;;;;;;;5013588;28;20026;-66
2021/06/28 12:30:55;;;;;;;4.47;4.07;;;;;;;;;;5013753;28;20636;-66
2021/06/28 12:33:21;;;;;;;4.78;4.25;;;;;;;;;;5013873;28;20389;-65
2021/06/28 12:35:57;;;;;;;4.78;4.35;;;;;;;;;;5013427;28;20022;-66
2021/06/28 12:38:23;;;;;;;4.88;4.45;;;;;;;;;;4995699;28;20061;-66
2021/06/28 12:40:49;;;;;;;4.53;4.13;;;;;;;;;;5013555;28;20076;-66
2021/06/28 12:43:16;;;;;;;4.13;3.72;;;;;;;;;;5013485;28;20022;-66
2021/06/28 12:45:52;;;;;;;4.28;3.88;;;;;;;;;;5013723;28;20041;-66
2021/06/28 12:48:23;;;;;;;6.28;3.88;;;;;;;;;;5013097;28;20034;-66
2021/06/28 12:50:59;;;;;;;4.75;4.35;;;;;;;;;;4995822;28;20026;-66
2021/06/28 12:53:25;;;;;;;4.78;3.70;;;;;;;;;;5014145;28;20101;-64
2021/06/28 12:56:03;;;;;;;4.47;4.10;;;;;;;;;;5013167;28;20077;-66
2021/06/28 12:58:40;;;;;;;5.47;4.60;;;;;;;;;;4995630;28;20046;-66
2021/06/28 13:01:06;;;;;;;5.85;4.75;;;;;;;;;;5013080;28;20388;-65
2021/06/28 13:03:32;;;;;;;5.30;4.80;;;;;;;;;;5013234;28;20026;-66
2021/06/28 13:06:01;;;;;;;5.15;4.03;;;;;;;;;;5013232;28;20497;-66
2021/06/28 13:08:29;;;;;;;4.78;3.95;;;;;;;;;;5012400;28;20076;-66
2021/06/28 13:11:00;;;;;;;4.65;4.25;;;;;;;;;;5012769;28;20104;-66
2021/06/28 13:13:28;;;;;;;9.95;4.68;;;;;;;;;;5012921;28;20480;-66
2021/06/28 13:19:19;;;;;;;6.75;4.10;;;;;;;;;;4979392;28;20483;-66
2021/06/28 13:21:54;;;;;;;5.68;4.20;;;;;;;;;;5012467;28;20042;-66
2021/06/28 13:24:20;;;;;;;5.00;4.13;;;;;;;;;;5012771;28;20022;-66
2021/06/28 13:26:47;;;;;;;4.50;4.07;;;;;;;;;;5012572;28;20030;-65
2021/06/28 13:29:18;;;;;;;6.20;4.38;;;;;;;;;;5012328;28;20029;-66
2021/06/28 13:31:48;;;;;;;5.63;4.18;;;;;;;;;;5012498;28;20033;-66
2021/06/28 13:34:17;;;;;;;4.70;3.97;;;;;;;;;;5011611;28;20499;-66
2021/06/28 13:37:02;;;;;;;6.43;4.35;;;;;;;;;;5011238;28;20018;-65
2021/06/28 13:39:43;;;;;;;6.30;4.35;;;;;;;;;;5011577;28;20454;-66
2021/06/28 13:42:21;;;;;;;4.63;4.18;;;;;;;;;;5011594;28;20029;-67
2021/06/28 13:44:54;;;;;;;5.15;4.28;;;;;;;;;;5012419;28;20030;-66
2021/06/28 13:47:20;;;;;;;4.13;3.72;;;;;;;;;;4994589;28;20033;-66
2021/06/28 13:49:46;;;;;;;5.85;4.28;;;;;;;;;;5012237;28;20021;-66
2021/06/28 13:52:13;;;;;;;6.55;4.00;;;;;;;;;;5012269;28;20415;-66
2021/06/28 13:54:39;;;;;;;4.95;4.45;;;;;;;;;;5012332;28;20050;-66
2021/06/28 13:57:05;;;;;;;4.68;4.07;;;;;;;;;;5012090;28;20033;-66
2021/06/28 13:59:31;;;;;;;4.07;3.63;;;;;;;;;;5012204;28;20053;-68
2021/06/28 14:01:57;;;;;;;4.13;3.83;;;;;;;;;;5011983;28;20018;-66
2021/06/28 14:04:23;;;;;;;4.05;3.70;;;;;;;;;;5011820;28;20502;-66
2021/06/28 14:06:49;;;;;;;3.90;3.60;;;;;;;;;;4994411;28;20030;-66
2021/06/28 14:09:15;;;;;;;4.30;3.90;;;;;;;;;;5012121;28;20105;-66